createdAt,value
2023-05-12T00:00:49.613Z,51.34
2023-05-12T00:03:21.770Z,51.48
2023-05-12T00:05:54.429Z,51.51
2023-05-12T00:08:26.668Z,51.55
2023-05-12T00:10:58.992Z,51.74
2023-05-12T00:13:31.350Z,51.77
2023-05-12T00:16:03.672Z,51.79
2023-05-12T00:18:36.129Z,51.96
2023-05-12T00:21:08.945Z,51.87
2023-05-12T00:23:41.361Z,51.95
2023-05-12T00:26:13.562Z,52.00
2023-05-12T00:28:47.624Z,52.06
2023-05-12T00:31:20.000Z,52.18
2023-05-12T00:33:52.163Z,52.02
2023-05-12T00:36:24.764Z,52.20
2023-05-12T00:38:57.353Z,52.23
2023-05-12T00:41:29.628Z,52.35
2023-05-12T00:44:01.922Z,52.38
2023-05-12T00:46:34.825Z,52.53
2023-05-12T00:49:08.537Z,52.51
2023-05-12T00:51:41.485Z,52.60
2023-05-12T00:54:13.743Z,52.56
2023-05-12T00:56:45.922Z,52.67
2023-05-12T00:59:18.274Z,52.74
2023-05-12T01:01:51.815Z,52.87
2023-05-12T01:04:24.665Z,52.69
2023-05-12T01:07:01.239Z,52.84
2023-05-12T01:09:33.594Z,52.81
2023-05-12T01:12:06.308Z,52.82
2023-05-12T01:14:38.596Z,52.83
2023-05-12T01:17:14.681Z,53.06
2023-05-12T01:19:51.617Z,53.04
2023-05-12T01:22:24.914Z,53.17
2023-05-12T01:24:59.512Z,53.09
2023-05-12T01:27:32.801Z,53.20
2023-05-12T01:30:07.914Z,53.25
2023-05-12T01:32:41.914Z,53.35
2023-05-12T01:35:14.549Z,53.32
2023-05-12T01:37:46.953Z,53.37
2023-05-12T01:40:19.819Z,53.51
2023-05-12T01:42:52.892Z,53.54
2023-05-12T01:45:25.032Z,53.51
2023-05-12T01:47:57.266Z,53.54
2023-05-12T01:50:29.618Z,53.61
2023-05-12T01:53:01.942Z,53.70
2023-05-12T01:55:34.713Z,53.78
2023-05-12T01:58:06.846Z,53.90
2023-05-12T02:00:39.184Z,53.93
2023-05-12T02:03:11.591Z,53.96
2023-05-12T02:05:43.997Z,54.08
2023-05-12T02:08:16.205Z,54.03
2023-05-12T02:10:48.418Z,54.15
2023-05-12T02:13:20.635Z,54.12
2023-05-12T02:15:52.869Z,54.33
2023-05-12T02:18:25.232Z,54.32
2023-05-12T02:20:57.395Z,54.42
2023-05-12T02:23:29.605Z,54.53
2023-05-12T02:26:01.783Z,54.61
2023-05-12T02:28:34.166Z,54.63
2023-05-12T02:31:06.449Z,54.72
2023-05-12T02:33:38.835Z,54.72
2023-05-12T02:36:11.932Z,54.80
2023-05-12T02:38:44.197Z,54.94
2023-05-12T02:41:16.287Z,55.03
2023-05-12T02:43:48.701Z,54.95
2023-05-12T02:46:20.864Z,55.03
2023-05-12T02:48:53.077Z,55.13
2023-05-12T02:51:25.262Z,55.41
2023-05-12T02:53:57.617Z,55.46
2023-05-12T02:56:31.347Z,55.57
2023-05-12T02:59:04.485Z,55.55
2023-05-12T03:01:36.750Z,55.70
2023-05-12T03:04:08.894Z,55.80
2023-05-12T03:06:41.136Z,55.83
2023-05-12T03:09:13.583Z,55.92
2023-05-12T03:11:45.971Z,56.07
2023-05-12T03:14:18.242Z,56.11
2023-05-12T03:16:50.448Z,56.17
2023-05-12T03:19:22.566Z,56.23
2023-05-12T03:21:55.017Z,56.28
2023-05-12T03:24:27.319Z,56.33
2023-05-12T03:26:59.688Z,56.42
2023-05-12T03:29:31.940Z,56.51
2023-05-12T03:32:04.133Z,56.56
2023-05-12T03:34:36.572Z,56.69
2023-05-12T03:37:09.268Z,56.67
2023-05-12T03:39:41.398Z,56.80
2023-05-12T03:42:14.643Z,56.90
2023-05-12T03:44:46.826Z,56.93
2023-05-12T03:47:19.261Z,56.98
2023-05-12T03:49:51.877Z,57.02
2023-05-12T03:52:24.154Z,57.16
2023-05-12T03:54:56.595Z,57.26
2023-05-12T03:57:28.801Z,57.33
2023-05-12T04:00:01.091Z,57.46
2023-05-12T04:02:33.713Z,57.57
2023-05-12T04:05:08.315Z,57.62
2023-05-12T04:07:40.527Z,57.79
2023-05-12T04:10:13.480Z,57.78
2023-05-12T04:12:45.822Z,57.89
2023-05-12T04:15:18.700Z,57.97
2023-05-12T04:17:51.202Z,58.08
2023-05-12T04:20:24.033Z,58.08
2023-05-12T04:22:56.811Z,58.23
2023-05-12T04:25:29.020Z,58.29
2023-05-12T04:28:01.206Z,58.26
2023-05-12T04:30:33.411Z,58.45
2023-05-12T04:33:05.772Z,58.52
2023-05-12T04:35:38.286Z,58.62
2023-05-12T04:38:10.630Z,58.67
2023-05-12T04:40:42.841Z,58.69
2023-05-12T04:45:51.494Z,58.74
2023-05-12T04:48:23.801Z,58.91
2023-05-12T04:50:56.110Z,58.97
2023-05-12T04:53:28.428Z,58.89
2023-05-12T04:56:00.788Z,59.08
2023-05-12T04:58:33.127Z,58.99
2023-05-12T05:01:05.502Z,59.14
2023-05-12T05:03:37.969Z,59.09
2023-05-12T05:06:10.520Z,59.13
2023-05-12T05:08:42.835Z,59.21
2023-05-12T05:11:15.117Z,59.31
2023-05-12T05:13:47.269Z,59.28
2023-05-12T05:16:19.582Z,59.01
2023-05-12T05:18:52.207Z,59.01
2023-05-12T05:21:24.595Z,58.79
2023-05-12T05:23:56.872Z,58.90
2023-05-12T05:26:29.218Z,58.94
2023-05-12T05:29:01.414Z,58.77
2023-05-12T05:31:34.007Z,58.86
2023-05-12T05:34:06.249Z,58.75
2023-05-12T05:36:38.552Z,58.72
2023-05-12T05:39:11.292Z,58.75
2023-05-12T05:41:43.413Z,58.80
2023-05-12T05:44:15.980Z,58.84
2023-05-12T05:46:48.397Z,58.81
2023-05-12T05:49:20.664Z,58.45
2023-05-12T05:51:52.870Z,58.45
2023-05-12T05:54:26.110Z,58.29
2023-05-12T05:57:00.830Z,58.33
2023-05-12T05:59:33.420Z,58.35
2023-05-12T06:02:05.842Z,58.23
2023-05-12T06:04:38.269Z,58.11
2023-05-12T06:07:10.700Z,57.91
2023-05-12T06:09:43.026Z,57.89
2023-05-12T06:12:15.400Z,57.69
2023-05-12T06:14:47.571Z,57.51
2023-05-12T06:17:19.917Z,57.60
2023-05-12T06:19:52.397Z,57.55
2023-05-12T06:22:25.150Z,57.11
2023-05-12T06:24:57.403Z,57.22
2023-05-12T06:27:29.860Z,56.96
2023-05-12T06:30:02.056Z,56.96
2023-05-12T06:32:34.449Z,56.75
2023-05-12T06:35:07.735Z,56.62
2023-05-12T06:37:40.040Z,56.58
2023-05-12T06:40:13.115Z,56.65
2023-05-12T06:42:45.623Z,56.52
2023-05-12T06:45:17.938Z,56.59
2023-05-12T06:47:50.456Z,56.50
2023-05-12T06:50:22.924Z,56.50
2023-05-12T06:52:55.199Z,56.56
2023-05-12T06:55:27.639Z,56.59
2023-05-12T06:57:59.837Z,56.40
2023-05-12T07:00:32.022Z,56.31
2023-05-12T07:03:04.317Z,56.22
2023-05-12T07:05:36.657Z,56.06
2023-05-12T07:08:08.983Z,55.83
2023-05-12T07:10:41.318Z,55.92
2023-05-12T07:13:13.460Z,55.96
2023-05-12T07:15:45.744Z,55.70
2023-05-12T07:18:18.134Z,55.66
2023-05-12T07:20:50.571Z,55.44
2023-05-12T07:23:22.900Z,55.14
2023-05-12T07:25:55.433Z,55.13
2023-05-12T07:28:27.845Z,55.02
2023-05-12T07:31:00.022Z,54.92
2023-05-12T07:33:32.784Z,54.85
2023-05-12T07:36:05.923Z,54.87
2023-05-12T07:38:38.430Z,54.68
2023-05-12T07:41:10.735Z,54.50
2023-05-12T07:43:42.753Z,54.21
2023-05-12T07:46:15.067Z,53.82
2023-05-12T07:48:47.387Z,53.78
2023-05-12T07:51:19.712Z,53.58
2023-05-12T07:53:51.924Z,53.63
2023-05-12T07:56:24.173Z,53.53
2023-05-12T07:58:56.481Z,53.51
2023-05-12T08:01:28.739Z,53.16
2023-05-12T08:04:01.239Z,52.91
2023-05-12T08:06:34.379Z,52.55
2023-05-12T08:09:06.915Z,52.35
2023-05-12T08:11:39.121Z,52.16
2023-05-12T08:14:11.405Z,52.17
2023-05-12T08:16:45.620Z,52.27
2023-05-12T08:19:17.902Z,51.95
2023-05-12T08:21:50.104Z,51.92
2023-05-12T08:24:22.670Z,51.66
2023-05-12T08:26:54.897Z,51.64
2023-05-12T08:29:28.288Z,51.29
2023-05-12T08:32:01.230Z,51.19
2023-05-12T08:34:34.031Z,51.28
2023-05-12T08:37:07.763Z,51.24
2023-05-12T08:39:40.216Z,50.92
2023-05-12T08:42:31.829Z,50.42
2023-05-12T08:45:04.584Z,50.36
2023-05-12T08:47:38.788Z,50.23
2023-05-12T08:50:13.304Z,50.24
2023-05-12T08:52:45.887Z,50.26
2023-05-12T08:55:19.258Z,49.99
2023-05-12T08:57:51.745Z,49.89
2023-05-12T09:00:25.709Z,49.61
2023-05-12T09:02:58.909Z,49.51
2023-05-12T09:05:33.292Z,49.07
2023-05-12T09:08:06.748Z,48.90
2023-05-12T09:10:39.697Z,48.81
2023-05-12T09:13:18.813Z,48.90
2023-05-12T09:15:53.981Z,48.95
2023-05-12T09:18:26.324Z,48.91
2023-05-12T09:20:58.501Z,48.91
2023-05-12T09:23:30.775Z,48.60
2023-05-12T09:26:04.268Z,48.55
2023-05-12T09:28:40.129Z,48.37
2023-05-12T09:31:20.370Z,48.34
2023-05-12T09:33:53.479Z,48.02
2023-05-12T09:36:27.166Z,47.75
2023-05-12T09:39:07.372Z,47.77
2023-05-12T09:41:41.023Z,47.90
2023-05-12T09:44:16.754Z,48.07
2023-05-12T09:46:49.280Z,47.86
2023-05-12T09:49:26.090Z,47.61
2023-05-12T09:51:59.712Z,47.41
2023-05-12T09:54:33.756Z,47.57
2023-05-12T09:57:07.474Z,47.65
2023-05-12T09:59:40.989Z,47.51
2023-05-12T10:02:18.275Z,47.35
2023-05-12T10:04:58.146Z,47.27
2023-05-12T10:07:31.472Z,47.16
2023-05-12T10:10:07.549Z,47.14
2023-05-12T10:12:40.323Z,47.08
2023-05-12T10:15:14.624Z,47.06
2023-05-12T10:17:47.689Z,46.91
2023-05-12T10:20:20.950Z,46.69
2023-05-12T10:22:55.973Z,46.77
2023-05-12T10:25:28.272Z,46.72
2023-05-12T10:28:02.455Z,46.69
2023-05-12T10:30:35.113Z,46.68
2023-05-12T10:33:09.363Z,46.55
2023-05-12T10:35:46.193Z,46.51
2023-05-12T10:38:20.266Z,46.50
2023-05-12T10:41:01.296Z,46.30
2023-05-12T10:43:43.669Z,46.21
2023-05-12T10:46:21.798Z,46.12
2023-05-12T10:48:57.006Z,46.02
2023-05-12T10:51:31.152Z,46.05
2023-05-12T10:54:05.015Z,46.04
2023-05-12T10:56:46.419Z,46.06
2023-05-12T10:59:21.918Z,45.97
2023-05-12T11:02:05.564Z,45.94
2023-05-12T11:04:44.872Z,45.86
2023-05-12T11:07:22.189Z,45.80
2023-05-12T11:09:59.500Z,45.48
2023-05-12T11:12:35.487Z,45.16
2023-05-12T11:15:10.139Z,44.51
2023-05-12T11:17:42.945Z,44.02
2023-05-12T11:20:25.223Z,44.27
2023-05-12T11:22:57.637Z,44.01
2023-05-12T11:25:31.337Z,43.76
2023-05-12T11:28:04.178Z,43.67
2023-05-12T11:30:36.806Z,43.69
2023-05-12T11:33:09.266Z,43.60
2023-05-12T11:35:41.688Z,43.65
2023-05-12T11:38:20.066Z,43.63
2023-05-12T11:40:52.283Z,43.42
2023-05-12T11:43:24.457Z,43.31
2023-05-12T11:45:56.577Z,43.29
2023-05-12T11:48:36.176Z,43.06
2023-05-12T11:51:09.171Z,42.79
2023-05-12T11:53:44.277Z,42.84
2023-05-12T11:56:23.500Z,42.63
2023-05-12T11:58:59.755Z,42.02
2023-05-12T12:01:33.808Z,42.23
2023-05-12T12:04:06.329Z,42.13
2023-05-12T12:06:46.565Z,41.94
2023-05-12T12:09:18.730Z,41.76
2023-05-12T12:11:50.874Z,41.93
2023-05-12T12:14:23.184Z,42.04
2023-05-12T12:16:55.593Z,41.77
2023-05-12T12:19:28.124Z,41.43
2023-05-12T12:22:00.794Z,41.36
2023-05-12T12:24:33.367Z,41.51
2023-05-12T12:27:06.050Z,41.39
2023-05-12T12:29:38.323Z,41.03
2023-05-12T12:32:11.089Z,41.07
2023-05-12T12:34:45.112Z,41.03
2023-05-12T12:37:17.719Z,40.64
2023-05-12T12:39:49.890Z,40.77
2023-05-12T12:42:22.453Z,40.98
2023-05-12T12:44:54.690Z,40.88
2023-05-12T12:47:27.212Z,40.90
2023-05-12T12:49:59.904Z,40.97
2023-05-12T12:52:33.018Z,40.88
2023-05-12T12:55:05.645Z,40.64
2023-05-12T12:57:37.919Z,40.73
2023-05-12T13:00:13.611Z,40.71
2023-05-12T13:02:45.029Z,40.70
2023-05-12T13:05:17.858Z,40.71
2023-05-12T13:07:51.523Z,40.58
2023-05-12T13:10:25.678Z,40.39
2023-05-12T13:12:57.829Z,40.46
2023-05-12T13:15:32.434Z,40.53
2023-05-12T13:18:04.702Z,40.60
2023-05-12T13:20:37.049Z,40.62
2023-05-12T13:23:09.261Z,40.54
2023-05-12T13:25:41.679Z,40.48
2023-05-12T13:28:13.904Z,40.55
2023-05-12T13:30:46.762Z,40.47
2023-05-12T13:33:18.989Z,40.49
2023-05-12T13:35:51.178Z,40.33
2023-05-12T13:38:23.489Z,40.43
2023-05-12T13:40:55.898Z,40.56
2023-05-12T13:43:28.229Z,40.48
2023-05-12T13:46:00.463Z,40.55
2023-05-12T13:48:32.695Z,40.65
2023-05-12T13:51:05.061Z,40.49
2023-05-12T13:53:39.729Z,40.39
2023-05-12T13:56:12.277Z,40.25
2023-05-12T13:58:44.528Z,40.37
2023-05-12T14:01:16.864Z,40.39
2023-05-12T14:03:49.242Z,40.44
2023-05-12T14:06:21.725Z,40.42
2023-05-12T14:08:53.879Z,40.48
2023-05-12T14:11:26.329Z,40.48
2023-05-12T14:14:00.476Z,40.41
2023-05-12T14:16:32.711Z,40.53
2023-05-12T14:19:04.950Z,40.42
2023-05-12T14:21:37.246Z,40.63
2023-05-12T14:24:10.664Z,40.59
2023-05-12T14:26:42.898Z,40.48
2023-05-12T14:29:15.225Z,40.21
2023-05-12T14:31:47.444Z,39.84
2023-05-12T14:34:20.532Z,40.02
2023-05-12T14:36:52.823Z,39.80
2023-05-12T14:39:25.261Z,39.79
2023-05-12T14:41:57.491Z,39.51
2023-05-12T14:44:29.655Z,39.70
2023-05-12T14:47:01.920Z,39.85
2023-05-12T14:49:34.172Z,39.77
2023-05-12T14:52:06.849Z,39.87
2023-05-12T14:54:39.083Z,39.69
2023-05-12T14:57:13.641Z,39.80
2023-05-12T14:59:46.007Z,39.70
2023-05-12T15:02:18.148Z,39.63
2023-05-12T15:04:51.489Z,39.47
2023-05-12T15:07:23.672Z,39.12
2023-05-12T15:09:55.928Z,39.21
2023-05-12T15:12:28.454Z,39.14
2023-05-12T15:15:02.425Z,39.13
2023-05-12T15:17:34.813Z,38.88
2023-05-12T15:20:09.914Z,39.02
2023-05-12T15:22:42.272Z,39.11
2023-05-12T15:25:14.822Z,39.08
2023-05-12T15:27:47.058Z,38.99
2023-05-12T15:30:19.811Z,39.06
2023-05-12T15:32:52.001Z,39.03
2023-05-12T15:35:24.180Z,38.96
2023-05-12T15:37:56.509Z,38.84
2023-05-12T15:40:30.721Z,38.56
2023-05-12T15:43:03.148Z,38.61
2023-05-12T15:45:37.548Z,38.62
2023-05-12T15:48:09.999Z,38.78
2023-05-12T15:50:42.150Z,38.52
2023-05-12T15:53:14.230Z,38.60
2023-05-12T15:55:46.824Z,38.71
2023-05-12T15:58:19.022Z,38.71
2023-05-12T16:00:51.270Z,38.62
2023-05-12T16:03:23.793Z,38.71
2023-05-12T16:05:56.357Z,38.65
2023-05-12T16:08:28.587Z,38.71
2023-05-12T16:11:00.889Z,38.77
2023-05-12T16:13:33.192Z,38.62
2023-05-12T16:16:06.404Z,38.57
2023-05-12T16:18:40.112Z,38.46
2023-05-12T16:21:12.854Z,38.44
2023-05-12T16:23:44.990Z,38.59
2023-05-12T16:26:17.149Z,38.55
2023-05-12T16:28:49.744Z,38.59
2023-05-12T16:31:21.862Z,38.54
2023-05-12T16:33:54.027Z,38.61
2023-05-12T16:36:26.416Z,38.68
2023-05-12T16:38:59.582Z,38.59
2023-05-12T16:41:32.022Z,38.70
2023-05-12T16:44:04.267Z,38.74
2023-05-12T16:46:37.707Z,38.78
2023-05-12T16:49:11.097Z,38.75
2023-05-12T16:51:43.411Z,38.74
2023-05-12T16:54:15.931Z,38.76
2023-05-12T16:56:48.534Z,38.89
2023-05-12T16:59:20.960Z,38.90
2023-05-12T17:01:53.209Z,38.90
2023-05-12T17:04:25.565Z,38.96
2023-05-12T17:06:57.983Z,39.04
2023-05-12T17:09:30.347Z,39.08
2023-05-12T17:12:04.562Z,39.04
2023-05-12T17:14:37.350Z,39.09
2023-05-12T17:17:09.875Z,39.13
2023-05-12T17:19:43.431Z,39.20
2023-05-12T17:22:16.060Z,39.23
2023-05-12T17:24:48.154Z,39.24
2023-05-12T17:27:20.774Z,39.23
2023-05-12T17:29:52.999Z,39.23
2023-05-12T17:32:25.292Z,39.25
2023-05-12T17:34:58.146Z,39.32
2023-05-12T17:37:30.583Z,39.32
2023-05-12T17:40:04.628Z,39.24
2023-05-12T17:42:37.316Z,39.30
2023-05-12T17:45:13.868Z,39.34
2023-05-12T17:47:48.107Z,39.28
2023-05-12T17:50:20.522Z,39.33
2023-05-12T17:52:54.578Z,39.30
2023-05-12T17:55:26.870Z,39.31
2023-05-12T17:57:59.007Z,39.33
2023-05-12T18:00:31.324Z,39.29
2023-05-12T18:03:03.765Z,39.38
2023-05-12T18:05:36.702Z,39.35
2023-05-12T18:08:09.302Z,39.36
2023-05-12T18:10:41.601Z,39.32
2023-05-12T18:13:14.802Z,39.22
2023-05-12T18:15:46.931Z,39.34
2023-05-12T18:18:19.260Z,39.40
2023-05-12T18:20:51.496Z,39.37
2023-05-12T18:23:23.848Z,39.29
2023-05-12T18:25:56.543Z,39.41
2023-05-12T18:28:29.239Z,39.36
2023-05-12T18:31:09.301Z,39.41
2023-05-12T18:33:50.874Z,39.46
2023-05-12T18:36:23.826Z,39.38
2023-05-12T18:38:56.334Z,39.41
2023-05-12T18:41:29.009Z,39.35
2023-05-12T18:44:01.233Z,39.39
2023-05-12T18:46:33.428Z,39.42
2023-05-12T18:49:05.799Z,39.26
2023-05-12T18:51:38.238Z,39.29
2023-05-12T18:54:10.632Z,39.34
2023-05-12T18:56:42.757Z,39.36
2023-05-12T18:59:15.084Z,39.23
2023-05-12T19:01:48.966Z,39.20
2023-05-12T19:04:21.993Z,39.25
2023-05-12T19:06:54.126Z,39.25
2023-05-12T19:09:26.292Z,39.29
2023-05-12T19:11:58.617Z,39.21
2023-05-12T19:14:30.834Z,39.19
2023-05-12T19:17:03.008Z,39.09
2023-05-12T19:19:35.262Z,39.06
2023-05-12T19:22:07.822Z,39.05
2023-05-12T19:24:40.080Z,39.03
2023-05-12T19:27:12.270Z,39.00
2023-05-12T19:29:44.564Z,39.02
2023-05-12T19:32:18.246Z,39.04
2023-05-12T19:34:51.851Z,38.99
2023-05-12T19:37:24.198Z,38.93
2023-05-12T19:39:56.788Z,38.94
2023-05-12T19:42:28.895Z,38.94
2023-05-12T19:45:01.065Z,38.96
2023-05-12T19:47:33.556Z,39.01
2023-05-12T19:50:07.740Z,38.92
2023-05-12T19:52:40.337Z,38.92
2023-05-12T19:55:12.944Z,38.98
2023-05-12T19:57:45.490Z,38.91
2023-05-12T20:00:19.154Z,38.97
2023-05-12T20:02:51.635Z,38.88
2023-05-12T20:05:24.526Z,38.78
2023-05-12T20:07:57.199Z,38.88
2023-05-12T20:10:29.412Z,38.76
2023-05-12T20:13:03.579Z,38.88
2023-05-12T20:15:36.013Z,38.78
2023-05-12T20:18:08.714Z,38.85
2023-05-12T20:20:41.043Z,38.88
2023-05-12T20:23:13.254Z,38.90
2023-05-12T20:25:45.886Z,38.86
2023-05-12T20:28:18.186Z,38.89
2023-05-12T20:30:50.841Z,38.82
2023-05-12T20:33:23.069Z,38.87
2023-05-12T20:35:55.552Z,38.87
2023-05-12T20:38:28.038Z,38.84
2023-05-12T20:41:06.580Z,38.92
2023-05-12T20:43:40.145Z,39.02
2023-05-12T20:46:12.756Z,38.97
2023-05-12T20:48:45.141Z,38.96
2023-05-12T20:51:17.320Z,38.94
2023-05-12T20:53:49.520Z,39.03
2023-05-12T20:56:23.321Z,39.01
2023-05-12T20:58:57.448Z,39.04
2023-05-12T21:01:29.972Z,39.11
2023-05-12T21:04:02.341Z,39.09
2023-05-12T21:06:35.972Z,39.12
2023-05-12T21:09:08.214Z,39.14
2023-05-12T21:11:40.537Z,39.10
2023-05-12T21:14:12.649Z,39.12
2023-05-12T21:16:45.176Z,39.13
2023-05-12T21:19:17.515Z,39.14
2023-05-12T21:21:49.822Z,39.12
2023-05-12T21:24:22.133Z,39.26
2023-05-12T21:26:54.299Z,39.11
2023-05-12T21:29:26.545Z,39.12
2023-05-12T21:31:58.737Z,39.29
2023-05-12T21:34:31.550Z,39.22
2023-05-12T21:37:03.718Z,39.23
2023-05-12T21:39:35.841Z,39.27
2023-05-12T21:42:09.030Z,39.36
2023-05-12T21:44:41.246Z,39.45
2023-05-12T21:47:13.408Z,39.38
2023-05-12T21:49:46.053Z,39.38
2023-05-12T21:52:18.401Z,39.52
2023-05-12T21:54:50.664Z,39.58
2023-05-12T21:57:22.828Z,39.67
2023-05-12T21:59:56.365Z,39.69
2023-05-12T22:02:28.584Z,39.71
2023-05-12T22:05:00.936Z,39.76
2023-05-12T22:07:33.218Z,39.91
2023-05-12T22:10:06.656Z,39.79
2023-05-12T22:12:38.756Z,39.96
2023-05-12T22:15:12.237Z,40.02
2023-05-12T22:17:45.644Z,40.14
2023-05-12T22:20:19.069Z,40.41
2023-05-12T22:22:51.550Z,40.39
2023-05-12T22:25:23.687Z,40.57
2023-05-12T22:27:55.810Z,40.64
2023-05-12T22:30:28.449Z,40.94
2023-05-12T22:33:01.247Z,40.89
2023-05-12T22:35:33.502Z,41.03
2023-05-12T22:38:05.808Z,41.06
2023-05-12T22:40:38.222Z,41.29
2023-05-12T22:43:12.850Z,41.48
2023-05-12T22:45:45.037Z,41.46
2023-05-12T22:48:17.331Z,41.52
2023-05-12T22:50:49.629Z,41.69
2023-05-12T22:53:21.868Z,41.73
2023-05-12T22:55:54.037Z,41.88
2023-05-12T22:58:26.163Z,41.79
2023-05-12T23:00:58.517Z,41.84
2023-05-12T23:03:32.632Z,41.98
2023-05-12T23:06:04.903Z,42.23
2023-05-12T23:08:37.086Z,42.31
2023-05-12T23:11:11.993Z,42.43
2023-05-12T23:13:44.263Z,42.65
2023-05-12T23:16:16.713Z,42.79
2023-05-12T23:18:48.938Z,42.79
2023-05-12T23:21:21.327Z,42.86
2023-05-12T23:23:53.670Z,42.74
2023-05-12T23:26:25.974Z,42.90
2023-05-12T23:28:58.253Z,42.72
2023-05-12T23:31:30.650Z,42.83
2023-05-12T23:34:02.850Z,42.81
2023-05-12T23:36:34.773Z,42.90
2023-05-12T23:39:07.068Z,43.17
2023-05-12T23:41:39.248Z,43.22
2023-05-12T23:44:11.322Z,43.31
2023-05-12T23:46:43.637Z,43.50
2023-05-12T23:49:16.199Z,43.63
2023-05-12T23:51:48.480Z,43.65
2023-05-12T23:54:20.669Z,43.71
2023-05-12T23:56:52.986Z,43.74
2023-05-12T23:59:25.687Z,43.92
